Airfield :
LOGIN :

Register | Disclaimer

   EN    FR    IT 

 










Legend :    VFR   Marginal VFR   IFR   Intensive IFR   Very Intensive IFR
Visi :
Ceiling :
>= 8 km
>= 3000ft
5 to 8 km
1000 to 3000 ft
1500m to 5 km
500 to 1000 ft
800 to 1500m
200 to 500 ft
< 800m
< 200 ft
Symbols :   Thunderstorms  Fog  Heavy snow  Heavy precipitations  Wind > 20 kt
SIGMETs :     Misc.  Thunderstorms  Icing  Turbulence  Mountain Waves  Volcanic Ashes






- Airport Elevation : 121 ft
- IATA code : HUY


EGNJ - Humberside

CURRENT METAR :
  • 290920Z 02009KT 9999 SCT021 BKN040 10/07 Q1021

EXPIRED METARs :
  • 290850Z 36013KT 9999 SCT020 BKN042 11/05 Q1021
  • 290820Z 35012KT 9999 SCT020 BKN042 11/05 Q1021
  • 290750Z 35011KT 9999 SCT017 BKN030 10/05 Q1021
  • 290720Z 34010KT 9999 FEW026 SCT040 10/06 Q1021
  • 290650Z 33008KT 9999 FEW026 SCT040 10/06 Q1021

TAF TAF EGNJ
Valid from the 29 at 09:00 until the 29 at 18:00 UTC


290801Z 2909/2918 35009KT 9999 SCT030
PROB30
TEMPO 2909/2918 6000 SHRA
PROB30
TEMPO 2909/2911 BKN014
ATIS : +44 1652 682 020



MET'MAP, your aeronautical weather chart ! - Copyright ORBIFLY December 2007 - Disclaimer

ORBIFLY MET'MAP TEAM :

Programming & Development : Alexandra Zaïnal
Original concept : Baudouin d'Aumeries
Technical & hardware support : Manuel Goepfert
Assistance : Marc-Olivier Méhu

Contact : metmap@orbifly.com




SOURCES & CREDITS :

   NOAA